This is the latest recevied weather packets stored in our database for station/object KI5NXU. If no packets are shown the sender has not sent any weather packets the latest 10 day(s).
| Time | Temp. | Humidity | Pressure | Rain* | Wind** | Luminosity | Snow |
|---|---|---|---|---|---|---|---|
| 1777556665 | 13.89° C | 87% | 1014 hPa | 0 mm | - | 32 W/m² | - |
| 1777556056 | 14.44° C | 87% | 1014.5 hPa | 0 mm | - | 46 W/m² | - |
| 1777555756 | 13.89° C | 87% | 1014.1 hPa | 0 mm | - | 58 W/m² | - |
| 1777555453 | 13.89° C | 86% | 1014.1 hPa | 0 mm | - | 57 W/m² | - |
| 1777555149 | 13.89° C | 86% | 1013.9 hPa | 0 mm | - | 58 W/m² | - |
| 1777554847 | 13.89° C | 86% | 1014.4 hPa | 0 mm | - | 59 W/m² | - |
| 1777554240 | 13.89° C | 85% | 1014.3 hPa | 0 mm | - | 49 W/m² | - |
| 1777553330 | 13.89° C | 86% | 1013.8 hPa | 0 mm | - | 48 W/m² | - |
| 1777553026 | 13.89° C | 86% | 1014.1 hPa | 0 mm | - | 43 W/m² | - |
| 1777552721 | 13.33° C | 86% | 1014 hPa | 0 mm | - | 34 W/m² | - |
| 1777551812 | 13.33° C | 87% | 1013.9 hPa | 0 mm | - | 25 W/m² | - |
| 1777549992 | 12.78° C | 87% | 1012.9 hPa | 0 mm | - | 1 W/m² | - |
| 1777549689 | 12.78° C | 87% | 1013.2 hPa | 0 mm | - | 0 W/m² | - |
| 1777549081 | 13.33° C | 86% | 1013.5 hPa | 0 mm | - | 0 W/m² | - |
| 1777548474 | 13.33° C | 86% | 1012.9 hPa | 0 mm | - | 0 W/m² | - |
| 1777547867 | 13.33° C | 85% | 1012.9 hPa | 0 mm | - | 0 W/m² | - |
| 1777546655 | 13.33° C | 85% | 1013.2 hPa | 0 mm | - | 0 W/m² | - |
| 1777546351 | 13.33° C | 85% | 1013.4 hPa | 0 mm | - | 0 W/m² | - |
| 1777546048 | 13.33° C | 85% | 1013.2 hPa | 0 mm | - | 0 W/m² | - |
| 1777545441 | 13.89° C | 84% | 1013.4 hPa | 0 mm | - | 0 W/m² | - |
| 1777545138 | 13.89° C | 84% | 1013.4 hPa | 0 mm | - | 0 W/m² | - |
| 1777544836 | 13.89° C | 84% | 1013.8 hPa | 0 mm | - | 0 W/m² | - |
| 1777544532 | 13.89° C | 84% | 1013.9 hPa | 0 mm | - | 0 W/m² | - |
| 1777544228 | 13.89° C | 84% | 1013.7 hPa | 0 mm | - | 0 W/m² | - |
| 1777543926 | 13.89° C | 84% | 1013.4 hPa | 0 mm | - | 0 W/m² | - |
* Rain latest hour (hover to see other rain measurements)
** Current wind speed in m/s (hover to see current wind gust speed)